Hovedside
METAR-TAF:

METAR-TAF

Lufthavner :

Ronneby lufthavn

Ronneby, Sverige

breddegrad: 56-16N, lengdegrad: 015-17E, høyde over havet: 58 m

Gjeldene værobservasjon

Denne rapporten ble laget for 30 minutter siden, klokken 16:50 UTC
Vind 6 kt fra Sør-sørvest, skiftende mellom Sør og Vest-sørvest
Temperatur 21°C
Luftfuktighet 64%
Trykk 1019 hPa
Sikt 10 km eller mer
ingen skyer under 1500 m og ingen bygeskyer

METAR: ESDF 241650Z 21006KT 190V250 CAVOK 21/14 Q1019

Tid: 19:20 (17:20 UTC)

Varsel

Denne rapporten ble laget for 2 timer og 50 minutter siden, klokken 14:30 UTC
Varsel gyldig fra 24. klokken 15 UTC til 24. klokken 19 UTC
Vind 5 kt fra Sør-sørvest
Sikt 10 km eller mer
ingen skyer under 1500 m og ingen bygeskyer

TAF: ESDF 241430Z 2415/2419 20005KT CAVOK

Værobservasjoner og værvarsel for over 4000 flyplasser (METAR- og TAF-rapporter).

Tilgjengelige stasjoner er representert av de røde og gule prikkene på kartet.

Hold musepekeren over prikken for å se navnet på stasjonen.

Klikk så for å se værobservasjoner og -varsler.

For å forandre kartet kan du klikke på den grønne knappen med svart kryss for å zoome inn, på den grønne knappen med strek for å zoome ut, eller på de grønne pilene for å se tilstøtende kart.


METAR-TAF: